EKYT/AAL METAR and TAF weather

Enter ICAO airport designator
Station Type Date Time Source
EKYT METAR 2020/12/05 05:50 UTC NOAA

EKYT 050550Z AUTO 12007KT 8000 OVC014/// 06/04 Q0999


Station Type Date Time Source
EKYT Decoded METAR 2020/12/05 05:50 UTC NOAA

Aalborg, Denmark (EKYT) 57-06N 009-51E 13M
Dec 05, 2020 - 12:50 AM EST / 2020.12.05 0550 UTC
Wind: from the ESE (120 degrees) at 8 MPH (7 KT):0
Visibility: 4 mile(s):0
Sky conditions: overcast
Temperature: 42 F (6 C)
Dew Point: 39 F (4 C)
Relative Humidity: 86%
Pressure (altimeter): 29.50 in. Hg (0999 hPa)
ob: EKYT 050550Z AUTO 12007KT 8000 OVC014/// 06/04 Q0999
cycle: 6

Station Type Date Time Source
EKYT TAF 2020/12/05 06:59 UTC NOAA

TAF EKYT 050552Z 0506/0606 10010KT 9999 SCT012 BKN020
TEMPO 0506/0513 4000 BR -RADZ BKN008
TEMPO 0513/0606 6000 BKN008
BECMG 0516/0519 17008KT

Example: see airport list